Time;durP1;ratioP1;P1;durP2;ratioP2;P2;SDS_P1;SDS_P2;PMS_P1;PMS_P2;Temp;Humidity;BMP_temperature;BMP_pressure;BME280_temperature;BME280_humidity;BME280_pressure;Samples;Min_cycle;Max_cycle;Signal;HPM_P1;HPM_P2
2023/05/05 00:02:12;;;;;;;11.93;3.55;;;;;;;;;;5111266;27;20055;-64
2023/05/05 00:04:38;;;;;;;17.25;4.30;;;;;;;;;;5105811;27;20062;-60
2023/05/05 00:07:04;;;;;;;11.93;4.20;;;;;;;;;;5109732;27;20059;-63
2023/05/05 00:09:30;;;;;;;17.15;4.50;;;;;;;;;;5109705;27;20131;-61
2023/05/05 00:11:56;;;;;;;19.48;4.32;;;;;;;;;;5101215;27;20515;-59
2023/05/05 00:14:22;;;;;;;14.05;4.07;;;;;;;;;;5109378;27;20059;-59
2023/05/05 00:16:48;;;;;;;11.95;4.15;;;;;;;;;;5112111;27;20051;-60
2023/05/05 00:19:14;;;;;;;19.42;4.63;;;;;;;;;;5118050;27;20047;-60
2023/05/05 00:21:40;;;;;;;16.42;4.50;;;;;;;;;;5107340;27;20047;-60
2023/05/05 00:24:08;;;;;;;15.68;4.35;;;;;;;;;;5107864;27;20178;-61
2023/05/05 00:26:34;;;;;;;17.48;4.18;;;;;;;;;;5102683;27;20107;-59
2023/05/05 00:29:00;;;;;;;13.80;3.92;;;;;;;;;;5105044;27;20065;-57
2023/05/05 00:32:06;;;;;;;20.63;4.70;;;;;;;;;;5111819;27;20051;-60
2023/05/05 00:35:47;;;;;;;19.92;4.35;;;;;;;;;;5102787;27;20039;-61
2023/05/05 00:39:27;;;;;;;12.93;4.05;;;;;;;;;;5107072;27;20433;-61
2023/05/05 00:43:07;;;;;;;13.50;4.40;;;;;;;;;;5108668;27;20039;-57
2023/05/05 00:47:03;;;;;;;15.35;4.50;;;;;;;;;;5107113;27;20577;-57
2023/05/05 00:50:46;;;;;;;16.05;4.25;;;;;;;;;;5107455;27;20166;-61
2023/05/05 00:54:27;;;;;;;13.88;4.18;;;;;;;;;;5106209;27;20186;-59
2023/05/05 00:58:07;;;;;;;16.00;4.60;;;;;;;;;;5106994;27;20057;-56
2023/05/05 01:01:47;;;;;;;14.60;3.95;;;;;;;;;;5108054;27;20058;-60
2023/05/05 01:05:28;;;;;;;15.88;4.22;;;;;;;;;;5107297;27;20039;-63
2023/05/05 01:09:18;;;;;;;11.77;5.05;;;;;;;;;;5107135;27;20364;-59
2023/05/05 01:12:55;;;;;;;13.18;4.57;;;;;;;;;;5108118;27;20112;-58
2023/05/05 01:16:08;;;;;;;14.85;4.40;;;;;;;;;;5108992;27;20074;-57
2023/05/05 01:19:47;;;;;;;12.52;4.18;;;;;;;;;;5107199;27;20039;-59
2023/05/05 01:23:27;;;;;;;11.40;3.92;;;;;;;;;;5108777;27;20062;-57
2023/05/05 01:26:50;;;;;;;17.23;4.30;;;;;;;;;;5105907;27;20058;-56
2023/05/05 01:30:08;;;;;;;14.00;3.70;;;;;;;;;;5108335;27;20051;-59
2023/05/05 01:33:49;;;;;;;15.60;3.85;;;;;;;;;;5107378;27;20047;-58
2023/05/05 01:37:29;;;;;;;12.30;4.07;;;;;;;;;;5106711;27;20078;-59
2023/05/05 01:41:09;;;;;;;14.00;4.03;;;;;;;;;;5104803;27;20127;-62
2023/05/05 01:44:50;;;;;;;17.92;4.22;;;;;;;;;;5106785;27;20055;-61
2023/05/05 01:48:32;;;;;;;14.68;4.05;;;;;;;;;;5106654;27;20200;-60
2023/05/05 01:52:10;;;;;;;14.20;4.35;;;;;;;;;;5106125;27;20061;-61
2023/05/05 01:55:51;;;;;;;15.82;5.55;;;;;;;;;;5105719;27;20043;-60
2023/05/05 01:59:31;;;;;;;13.60;5.35;;;;;;;;;;5106821;27;20185;-61
2023/05/05 02:03:12;;;;;;;12.43;6.50;;;;;;;;;;5107739;27;20057;-62
2023/05/05 02:06:52;;;;;;;16.02;6.95;;;;;;;;;;5105934;27;20065;-61
2023/05/05 02:10:32;;;;;;;17.25;8.95;;;;;;;;;;5105348;27;20129;-61
2023/05/05 02:14:12;;;;;;;15.35;8.35;;;;;;;;;;5105167;27;20533;-60
2023/05/05 02:17:53;;;;;;;19.10;9.27;;;;;;;;;;5108096;27;20078;-57
2023/05/05 02:21:33;;;;;;;18.27;8.40;;;;;;;;;;5110442;27;20035;-59
2023/05/05 02:25:14;;;;;;;16.73;6.60;;;;;;;;;;5104545;27;20347;-60
2023/05/05 02:28:54;;;;;;;13.18;5.50;;;;;;;;;;5107384;27;20071;-65
2023/05/05 02:32:37;;;;;;;12.90;5.15;;;;;;;;;;5103835;27;20138;-59
2023/05/05 02:36:17;;;;;;;12.82;4.55;;;;;;;;;;5104370;27;20046;-60
2023/05/05 02:39:57;;;;;;;11.13;4.10;;;;;;;;;;5104412;27;20625;-60
2023/05/05 02:43:38;;;;;;;14.27;4.20;;;;;;;;;;5107261;27;20108;-58
2023/05/05 02:47:18;;;;;;;13.52;4.57;;;;;;;;;;5107059;27;20527;-61
2023/05/05 02:50:58;;;;;;;13.27;4.85;;;;;;;;;;5107767;27;20658;-56
2023/05/05 02:54:39;;;;;;;12.10;4.43;;;;;;;;;;5106760;27;20901;-59
2023/05/05 02:58:27;;;;;;;11.70;4.35;;;;;;;;;;5103893;27;20058;-59
2023/05/05 03:02:13;;;;;;;11.13;4.28;;;;;;;;;;5105195;27;20103;-60
2023/05/05 03:06:01;;;;;;;10.95;4.03;;;;;;;;;;5108457;27;20058;-59
2023/05/05 03:09:45;;;;;;;13.10;5.03;;;;;;;;;;5111296;27;21972;-58
2023/05/05 03:13:25;;;;;;;10.98;4.88;;;;;;;;;;5110001;27;20055;-59
2023/05/05 03:17:05;;;;;;;15.18;4.22;;;;;;;;;;5111047;27;20773;-59
2023/05/05 03:20:47;;;;;;;11.40;4.40;;;;;;;;;;5128048;27;20074;-58
2023/05/05 03:24:33;;;;;;;15.77;4.93;;;;;;;;;;5123125;27;20051;-58
2023/05/05 03:28:13;;;;;;;14.55;4.50;;;;;;;;;;5109726;27;20078;-59
2023/05/05 03:31:54;;;;;;;9.80;4.47;;;;;;;;;;5113170;27;20127;-58
2023/05/05 03:35:34;;;;;;;15.63;4.78;;;;;;;;;;5107273;27;20078;-58
2023/05/05 03:39:14;;;;;;;13.57;4.65;;;;;;;;;;5108424;27;20479;-60
2023/05/05 03:42:55;;;;;;;13.55;5.15;;;;;;;;;;5111530;27;20054;-59
2023/05/05 03:46:35;;;;;;;18.63;5.90;;;;;;;;;;5110300;27;20337;-59
2023/05/05 03:50:15;;;;;;;15.35;6.65;;;;;;;;;;5110287;27;20082;-58
2023/05/05 03:53:56;;;;;;;14.50;6.63;;;;;;;;;;5110928;27;20054;-58
2023/05/05 03:57:36;;;;;;;19.30;8.32;;;;;;;;;;5111128;27;20117;-62
2023/05/05 04:01:18;;;;;;;17.23;8.80;;;;;;;;;;5113652;27;20065;-58
2023/05/05 04:04:58;;;;;;;19.10;9.15;;;;;;;;;;5112520;27;20071;-60
2023/05/05 04:08:38;;;;;;;16.45;9.10;;;;;;;;;;5106176;27;20134;-60
2023/05/05 04:12:18;;;;;;;17.45;9.07;;;;;;;;;;5106988;27;20062;-57
2023/05/05 04:15:59;;;;;;;20.48;9.48;;;;;;;;;;5108848;27;20122;-56
2023/05/05 04:19:39;;;;;;;18.00;9.38;;;;;;;;;;5112502;27;20120;-59
2023/05/05 04:23:22;;;;;;;19.98;8.80;;;;;;;;;;5105022;27;20153;-61
2023/05/05 04:27:03;;;;;;;15.63;8.35;;;;;;;;;;5105059;27;20134;-60
2023/05/05 04:30:43;;;;;;;20.38;8.63;;;;;;;;;;5103624;27;20055;-60
2023/05/05 04:34:23;;;;;;;16.25;8.52;;;;;;;;;;5103840;27;20074;-61
2023/05/05 04:38:04;;;;;;;17.88;8.75;;;;;;;;;;5108460;27;20099;-60
2023/05/05 04:41:44;;;;;;;18.42;8.63;;;;;;;;;;5104481;27;20046;-59
2023/05/05 04:45:09;;;;;;;17.45;8.80;;;;;;;;;;5108731;27;20043;-60
2023/05/05 04:48:15;;;;;;;18.75;9.70;;;;;;;;;;5087665;27;20537;-60
2023/05/05 04:51:56;;;;;;;27.70;10.65;;;;;;;;;;5104758;27;20043;-60
2023/05/05 04:55:36;;;;;;;22.67;9.82;;;;;;;;;;5109045;27;20410;-61
2023/05/05 04:59:18;;;;;;;25.35;10.68;;;;;;;;;;5106223;27;20055;-63
2023/05/05 05:02:58;;;;;;;25.80;10.95;;;;;;;;;;5111870;27;20316;-61
2023/05/05 05:06:38;;;;;;;25.08;11.50;;;;;;;;;;5100767;27;20545;-60
2023/05/05 05:10:19;;;;;;;22.17;11.00;;;;;;;;;;5102605;27;20104;-60
2023/05/05 05:13:59;;;;;;;21.15;11.07;;;;;;;;;;5104918;27;20066;-59
2023/05/05 05:17:39;;;;;;;20.63;10.90;;;;;;;;;;5109694;27;21728;-61
2023/05/05 05:21:20;;;;;;;23.77;12.27;;;;;;;;;;5115989;27;20043;-61
2023/05/05 05:25:00;;;;;;;25.58;11.60;;;;;;;;;;5107360;27;20129;-63
2023/05/05 05:28:41;;;;;;;26.63;10.95;;;;;;;;;;5107678;27;20082;-63
2023/05/05 05:32:22;;;;;;;19.10;10.63;;;;;;;;;;5103275;27;20506;-63
2023/05/05 05:36:02;;;;;;;23.70;10.75;;;;;;;;;;5106211;27;20054;-63
2023/05/05 05:39:42;;;;;;;21.70;10.05;;;;;;;;;;5105845;27;20066;-63
2023/05/05 05:43:22;;;;;;;21.13;9.43;;;;;;;;;;5107010;27;20238;-63
2023/05/05 05:47:04;;;;;;;19.33;9.40;;;;;;;;;;5105263;27;20047;-64
2023/05/05 05:50:46;;;;;;;23.77;10.25;;;;;;;;;;5105187;27;20051;-62
2023/05/05 05:54:27;;;;;;;19.45;10.70;;;;;;;;;;5105308;27;20326;-63
2023/05/05 05:58:07;;;;;;;22.15;11.10;;;;;;;;;;5106627;27;21565;-64
2023/05/05 06:02:03;;;;;;;25.08;12.15;;;;;;;;;;5106652;27;20122;-64
2023/05/05 06:05:43;;;;;;;22.73;11.45;;;;;;;;;;5108770;27;20104;-63
2023/05/05 06:09:24;;;;;;;27.98;12.27;;;;;;;;;;5106148;27;20062;-63
2023/05/05 06:13:04;;;;;;;27.55;12.38;;;;;;;;;;5107290;27;20055;-63
2023/05/05 06:16:44;;;;;;;23.38;11.02;;;;;;;;;;5109801;27;20602;-65
2023/05/05 06:20:25;;;;;;;25.25;12.48;;;;;;;;;;5103710;27;20058;-63
2023/05/05 06:24:05;;;;;;;22.40;12.75;;;;;;;;;;5106578;27;20035;-63
2023/05/05 06:27:45;;;;;;;24.27;12.55;;;;;;;;;;5097323;27;20087;-65
2023/05/05 06:31:26;;;;;;;22.27;13.23;;;;;;;;;;5096593;27;20830;-64
2023/05/05 06:35:06;;;;;;;32.05;17.05;;;;;;;;;;5104452;27;20047;-62
2023/05/05 06:38:46;;;;;;;28.75;13.95;;;;;;;;;;5106584;27;20114;-61
2023/05/05 06:42:26;;;;;;;30.65;14.27;;;;;;;;;;5111599;27;20047;-62
2023/05/05 06:46:07;;;;;;;28.85;15.20;;;;;;;;;;5110916;27;20041;-59
2023/05/05 06:49:47;;;;;;;36.85;16.02;;;;;;;;;;5104815;27;20133;-60
2023/05/05 06:53:28;;;;;;;23.80;14.38;;;;;;;;;;5108847;27;20244;-57
2023/05/05 06:57:10;;;;;;;27.77;14.50;;;;;;;;;;5110003;27;20050;-61
2023/05/05 07:00:52;;;;;;;27.23;14.77;;;;;;;;;;5110210;27;20043;-60
2023/05/05 07:04:33;;;;;;;31.23;13.85;;;;;;;;;;5106449;27;20389;-61
2023/05/05 07:08:13;;;;;;;30.73;12.55;;;;;;;;;;5110415;27;20077;-61
2023/05/05 07:11:54;;;;;;;26.10;12.57;;;;;;;;;;5107864;27;20593;-59
2023/05/05 07:15:34;;;;;;;20.95;11.32;;;;;;;;;;5112827;27;20027;-59
2023/05/05 07:19:15;;;;;;;25.52;10.80;;;;;;;;;;5106905;27;20518;-62
2023/05/05 07:22:55;;;;;;;22.70;9.73;;;;;;;;;;5112849;27;20062;-60
2023/05/05 07:26:35;;;;;;;20.08;10.60;;;;;;;;;;5109808;27;20066;-59
2023/05/05 07:30:15;;;;;;;20.02;10.85;;;;;;;;;;5107362;27;20055;-59
2023/05/05 07:33:56;;;;;;;20.33;10.07;;;;;;;;;;5108818;27;20047;-61
2023/05/05 07:37:36;;;;;;;20.70;9.88;;;;;;;;;;5108670;27;20805;-60
2023/05/05 07:41:17;;;;;;;20.85;9.77;;;;;;;;;;5109089;27;20042;-63
2023/05/05 07:44:57;;;;;;;22.05;9.32;;;;;;;;;;5107066;27;20668;-59
2023/05/05 07:48:40;;;;;;;18.90;9.38;;;;;;;;;;5108379;27;20043;-60
2023/05/05 07:52:19;;;;;;;18.08;7.85;;;;;;;;;;5105335;27;20408;-60
2023/05/05 07:56:00;;;;;;;14.93;6.55;;;;;;;;;;5088686;27;20099;-60
2023/05/05 07:59:43;;;;;;;10.60;4.63;;;;;;;;;;5090064;27;20116;-62
2023/05/05 08:03:23;;;;;;;12.50;4.38;;;;;;;;;;5090923;27;20146;-62
2023/05/05 08:07:02;;;;;;;13.63;4.70;;;;;;;;;;5086871;27;20046;-60
2023/05/05 08:10:43;;;;;;;15.70;5.13;;;;;;;;;;5084393;27;20278;-62
2023/05/05 08:14:23;;;;;;;15.55;5.85;;;;;;;;;;5085073;27;20111;-62
2023/05/05 08:18:06;;;;;;;12.00;5.07;;;;;;;;;;5086541;27;20055;-61
2023/05/05 08:21:46;;;;;;;12.35;5.38;;;;;;;;;;5090497;27;20403;-60
2023/05/05 08:25:27;;;;;;;13.48;5.18;;;;;;;;;;5088193;27;20047;-61
2023/05/05 08:29:07;;;;;;;17.83;6.40;;;;;;;;;;5089516;27;20399;-60
2023/05/05 08:32:47;;;;;;;10.25;5.38;;;;;;;;;;5092758;27;20172;-63
2023/05/05 08:36:28;;;;;;;13.30;5.07;;;;;;;;;;5087995;27;20587;-62
2023/05/05 08:40:08;;;;;;;12.57;4.97;;;;;;;;;;5086849;27;20055;-62
2023/05/05 08:43:49;;;;;;;14.18;4.60;;;;;;;;;;5088055;27;20283;-63
2023/05/05 08:47:30;;;;;;;12.30;3.95;;;;;;;;;;5089093;27;20654;-62
2023/05/05 08:51:09;;;;;;;15.48;4.90;;;;;;;;;;5089529;27;20061;-62
2023/05/05 08:54:50;;;;;;;10.82;4.00;;;;;;;;;;5103563;27;20658;-56
2023/05/05 08:58:30;;;;;;;12.98;4.35;;;;;;;;;;5107794;27;20829;-60
2023/05/05 09:02:11;;;;;;;12.45;4.35;;;;;;;;;;5108706;27;20099;-62
2023/05/05 09:05:52;;;;;;;14.07;4.85;;;;;;;;;;5108455;27;20124;-60
2023/05/05 09:09:33;;;;;;;12.70;4.40;;;;;;;;;;5106496;27;20051;-59
2023/05/05 09:13:13;;;;;;;14.55;4.55;;;;;;;;;;5106490;27;20486;-60
2023/05/05 09:16:53;;;;;;;12.52;4.57;;;;;;;;;;5114075;27;20274;-60
2023/05/05 09:20:38;;;;;;;11.10;4.13;;;;;;;;;;5106631;27;20047;-61
2023/05/05 09:24:30;;;;;;;9.05;3.22;;;;;;;;;;5108514;27;20047;-62
2023/05/05 09:28:10;;;;;;;12.93;3.90;;;;;;;;;;5106753;27;20584;-62
2023/05/05 09:31:55;;;;;;;12.90;3.78;;;;;;;;;;5109010;27;20642;-61
2023/05/05 09:35:39;;;;;;;9.98;3.33;;;;;;;;;;5105508;27;20075;-59
2023/05/05 09:39:22;;;;;;;10.07;3.45;;;;;;;;;;5107934;27;20110;-60
2023/05/05 09:43:02;;;;;;;13.95;3.80;;;;;;;;;;5108841;27;20071;-61
2023/05/05 09:46:45;;;;;;;11.02;3.45;;;;;;;;;;5107477;27;20043;-59
2023/05/05 09:50:28;;;;;;;12.68;3.60;;;;;;;;;;5107485;27;20420;-60
2023/05/05 09:54:06;;;;;;;17.02;4.05;;;;;;;;;;5107733;27;20519;-63
2023/05/05 09:57:46;;;;;;;12.20;3.17;;;;;;;;;;5107711;27;20059;-61
2023/05/05 10:01:27;;;;;;;9.13;3.65;;;;;;;;;;5107253;27;20039;-61
2023/05/05 10:05:08;;;;;;;10.35;3.50;;;;;;;;;;5107439;27;20047;-60
2023/05/05 10:08:49;;;;;;;10.65;3.30;;;;;;;;;;5105483;27;20407;-58
2023/05/05 10:12:30;;;;;;;18.40;4.10;;;;;;;;;;5110716;27;20042;-59
2023/05/05 10:16:10;;;;;;;11.95;3.42;;;;;;;;;;5107699;27;20043;-60
2023/05/05 10:19:50;;;;;;;12.38;3.90;;;;;;;;;;5112205;27;20087;-63
2023/05/05 10:23:31;;;;;;;10.95;3.60;;;;;;;;;;5105234;27;20478;-61
2023/05/05 10:27:11;;;;;;;9.63;3.80;;;;;;;;;;5107088;27;20050;-60
2023/05/05 10:30:31;;;;;;;10.88;3.42;;;;;;;;;;5107051;27;20102;-62
2023/05/05 10:34:30;;;;;;;8.65;3.40;;;;;;;;;;5103890;27;20463;-59
2023/05/05 10:38:10;;;;;;;8.93;3.30;;;;;;;;;;5107193;27;20439;-61
2023/05/05 10:41:51;;;;;;;22.10;3.42;;;;;;;;;;5105633;27;20058;-60
2023/05/05 10:45:31;;;;;;;14.40;3.22;;;;;;;;;;5104495;27;20082;-62
2023/05/05 10:49:00;;;;;;;8.07;3.58;;;;;;;;;;5106410;27;20058;-60
2023/05/05 10:52:22;;;;;;;12.90;3.47;;;;;;;;;;5105702;27;20081;-62
2023/05/05 10:56:07;;;;;;;13.68;3.40;;;;;;;;;;5106619;27;20047;-63
2023/05/05 11:00:00;;;;;;;17.60;3.47;;;;;;;;;;5107266;27;20053;-62
2023/05/05 11:03:51;;;;;;;10.93;2.80;;;;;;;;;;5092356;27;20058;-61
2023/05/05 11:07:07;;;;;;;15.00;3.10;;;;;;;;;;5106493;27;20412;-62
2023/05/05 11:10:47;;;;;;;10.00;2.90;;;;;;;;;;5106546;27;20048;-60
2023/05/05 11:14:39;;;;;;;7.47;2.97;;;;;;;;;;5103536;27;21098;-60
2023/05/05 11:18:23;;;;;;;6.85;2.92;;;;;;;;;;5106114;27;20186;-60
2023/05/05 11:22:06;;;;;;;11.70;3.20;;;;;;;;;;5111663;27;20406;-63
2023/05/05 11:25:39;;;;;;;8.93;2.92;;;;;;;;;;5106498;27;20054;-59
2023/05/05 11:29:33;;;;;;;12.43;2.90;;;;;;;;;;5109651;27;20037;-59
2023/05/05 11:33:12;;;;;;;7.30;3.00;;;;;;;;;;5110334;27;20047;-61
2023/05/05 11:36:58;;;;;;;10.27;2.95;;;;;;;;;;5109445;27;20051;-60
2023/05/05 11:40:42;;;;;;;9.35;3.60;;;;;;;;;;5111365;27;20078;-61
2023/05/05 11:44:08;;;;;;;11.82;4.72;;;;;;;;;;5109466;27;20046;-64
2023/05/05 11:47:11;;;;;;;14.68;8.52;;;;;;;;;;5110196;27;20043;-62
2023/05/05 11:50:54;;;;;;;11.63;3.95;;;;;;;;;;5110196;27;21314;-64
2023/05/05 11:54:35;;;;;;;9.43;3.50;;;;;;;;;;5106286;27;21915;-62
2023/05/05 11:58:15;;;;;;;9.68;4.00;;;;;;;;;;5107743;27;20051;-60
2023/05/05 12:01:58;;;;;;;10.82;3.30;;;;;;;;;;5105795;27;20177;-62
2023/05/05 12:05:39;;;;;;;13.38;3.35;;;;;;;;;;5106692;27;20123;-61
2023/05/05 12:09:19;;;;;;;11.70;3.90;;;;;;;;;;5109894;27;20499;-63
2023/05/05 12:12:59;;;;;;;13.90;4.53;;;;;;;;;;5107821;27;20240;-61
2023/05/05 12:16:29;;;;;;;12.10;3.58;;;;;;;;;;5107439;27;20509;-61
2023/05/05 12:20:12;;;;;;;10.75;4.10;;;;;;;;;;5119114;27;20383;-63
2023/05/05 12:23:55;;;;;;;8.40;3.22;;;;;;;;;;5106505;27;20043;-62
2023/05/05 12:27:47;;;;;;;11.57;2.60;;;;;;;;;;5104781;27;20470;-63
2023/05/05 12:31:34;;;;;;;11.75;3.08;;;;;;;;;;5107516;27;21404;-60
2023/05/05 12:35:15;;;;;;;14.88;4.40;;;;;;;;;;5107272;27;20155;-62
2023/05/05 12:38:54;;;;;;;9.80;3.25;;;;;;;;;;5107512;27;20054;-59
2023/05/05 12:42:35;;;;;;;10.93;2.22;;;;;;;;;;5107006;27;20532;-61
2023/05/05 12:46:21;;;;;;;9.27;3.58;;;;;;;;;;5105148;27;20099;-61
2023/05/05 12:50:04;;;;;;;7.88;3.20;;;;;;;;;;5106965;27;20125;-63
2023/05/05 12:53:44;;;;;;;10.70;3.30;;;;;;;;;;5104982;27;20120;-64
2023/05/05 12:57:30;;;;;;;10.75;2.95;;;;;;;;;;5106126;27;20224;-62
2023/05/05 13:00:51;;;;;;;;;;;;;;;;;;5105739;27;20079;-62
2023/05/05 13:04:40;;;;;;;8.85;2.58;;;;;;;;;;5106105;27;19922;-62
2023/05/05 13:08:30;;;;;;;13.68;2.90;;;;;;;;;;5106183;27;20057;-62
2023/05/05 13:12:11;;;;;;;7.15;2.38;;;;;;;;;;5106910;27;20490;-62
2023/05/05 13:15:50;;;;;;;10.73;3.20;;;;;;;;;;5105177;27;20076;-63
2023/05/05 13:19:31;;;;;;;11.65;2.75;;;;;;;;;;5105505;27;20096;-65
2023/05/05 13:23:11;;;;;;;9.40;2.63;;;;;;;;;;5115883;27;20051;-60
2023/05/05 13:26:52;;;;;;;6.65;2.28;;;;;;;;;;5107277;27;20054;-62
2023/05/05 13:30:32;;;;;;;11.07;2.90;;;;;;;;;;5107780;27;20027;-60
2023/05/05 13:34:12;;;;;;;7.13;2.72;;;;;;;;;;5104960;27;20128;-59
2023/05/05 13:37:53;;;;;;;8.25;2.67;;;;;;;;;;5104862;27;20073;-63
2023/05/05 13:41:33;;;;;;;8.15;2.50;;;;;;;;;;5103914;27;20051;-64
2023/05/05 13:45:16;;;;;;;11.35;2.70;;;;;;;;;;5103465;27;20107;-61
2023/05/05 13:48:55;;;;;;;6.13;2.40;;;;;;;;;;5103244;27;20058;-64
2023/05/05 13:52:36;;;;;;;9.88;2.42;;;;;;;;;;5103081;27;20126;-66
2023/05/05 13:56:17;;;;;;;10.25;2.83;;;;;;;;;;5104584;27;20228;-64
2023/05/05 13:59:57;;;;;;;10.80;2.65;;;;;;;;;;5104296;27;20258;-62
2023/05/05 14:03:38;;;;;;;9.35;2.90;;;;;;;;;;5104406;27;20517;-61
2023/05/05 14:07:18;;;;;;;7.65;2.60;;;;;;;;;;5104250;27;20104;-63
2023/05/05 14:10:58;;;;;;;7.68;2.80;;;;;;;;;;5107006;27;20039;-64
2023/05/05 14:14:39;;;;;;;9.05;2.88;;;;;;;;;;5106623;27;20601;-62
2023/05/05 14:18:19;;;;;;;9.95;2.40;;;;;;;;;;5106305;27;20046;-63
2023/05/05 14:21:59;;;;;;;7.93;2.35;;;;;;;;;;5112447;27;20070;-64
2023/05/05 14:25:40;;;;;;;11.40;2.85;;;;;;;;;;5123612;27;20675;-64
2023/05/05 14:29:20;;;;;;;9.52;2.83;;;;;;;;;;5123878;28;20071;-60
2023/05/05 14:33:01;;;;;;;7.82;2.40;;;;;;;;;;5125453;28;20043;-63
2023/05/05 14:36:41;;;;;;;9.57;2.30;;;;;;;;;;5122173;28;20046;-63
2023/05/05 14:40:21;;;;;;;9.95;2.70;;;;;;;;;;5120534;28;20461;-64
2023/05/05 14:44:02;;;;;;;9.23;2.83;;;;;;;;;;5124065;28;20078;-62
2023/05/05 14:47:42;;;;;;;10.63;2.63;;;;;;;;;;5117191;28;20118;-62
2023/05/05 14:51:22;;;;;;;7.50;2.58;;;;;;;;;;5124640;28;20146;-65
2023/05/05 14:55:03;;;;;;;10.60;3.05;;;;;;;;;;5121387;28;20068;-61
2023/05/05 14:58:43;;;;;;;9.13;2.65;;;;;;;;;;5124146;28;20410;-63
2023/05/05 15:02:24;;;;;;;10.18;3.30;;;;;;;;;;5128663;27;20047;-64
2023/05/05 15:06:04;;;;;;;12.23;3.05;;;;;;;;;;5121011;27;20101;-63
2023/05/05 15:09:44;;;;;;;15.23;3.33;;;;;;;;;;5122259;27;20075;-63
2023/05/05 15:13:25;;;;;;;8.90;2.40;;;;;;;;;;5126890;27;20403;-62
2023/05/05 15:17:05;;;;;;;11.90;3.00;;;;;;;;;;5123608;27;20050;-65
2023/05/05 15:20:45;;;;;;;12.02;2.70;;;;;;;;;;5125719;27;20047;-65
2023/05/05 15:24:26;;;;;;;9.07;2.83;;;;;;;;;;5125544;27;20057;-63
2023/05/05 15:28:06;;;;;;;10.95;3.00;;;;;;;;;;5129128;27;20043;-63
2023/05/05 15:31:46;;;;;;;9.15;2.92;;;;;;;;;;5128132;27;20107;-62
2023/05/05 15:35:27;;;;;;;10.95;2.45;;;;;;;;;;5127148;27;20498;-64
2023/05/05 15:39:07;;;;;;;8.95;3.20;;;;;;;;;;5126072;27;20051;-62
2023/05/05 15:42:48;;;;;;;10.68;3.65;;;;;;;;;;5127350;27;20493;-63
2023/05/05 15:46:28;;;;;;;8.50;2.58;;;;;;;;;;5117215;27;20047;-63
2023/05/05 15:50:08;;;;;;;11.57;2.90;;;;;;;;;;5107135;27;20074;-62
2023/05/05 15:53:48;;;;;;;8.52;2.90;;;;;;;;;;5106547;27;20090;-62
2023/05/05 15:57:30;;;;;;;10.63;2.90;;;;;;;;;;5107930;27;20062;-63
2023/05/05 16:01:10;;;;;;;10.68;2.78;;;;;;;;;;5109124;27;20058;-63
2023/05/05 16:04:51;;;;;;;11.18;2.67;;;;;;;;;;5107770;27;20116;-64
2023/05/05 16:08:31;;;;;;;10.82;3.00;;;;;;;;;;5109011;27;20775;-63
2023/05/05 16:12:11;;;;;;;12.63;3.05;;;;;;;;;;5107438;27;20088;-65
2023/05/05 16:15:52;;;;;;;11.55;3.72;;;;;;;;;;5107293;27;20043;-61
2023/05/05 16:19:32;;;;;;;8.02;3.40;;;;;;;;;;5104547;27;20053;-63
2023/05/05 16:23:12;;;;;;;7.95;3.50;;;;;;;;;;5106798;27;20055;-61
2023/05/05 16:26:54;;;;;;;10.48;3.88;;;;;;;;;;5106736;27;20050;-62
2023/05/05 16:30:34;;;;;;;14.88;3.72;;;;;;;;;;5109989;27;20836;-60
2023/05/05 16:34:15;;;;;;;11.05;4.15;;;;;;;;;;5104648;27;20051;-66
2023/05/05 16:37:55;;;;;;;10.55;4.20;;;;;;;;;;5106010;27;20073;-60
2023/05/05 16:41:35;;;;;;;12.05;4.60;;;;;;;;;;5107329;27;20097;-62
2023/05/05 16:45:16;;;;;;;12.68;4.78;;;;;;;;;;5104379;27;20628;-62
2023/05/05 16:48:56;;;;;;;11.13;4.45;;;;;;;;;;5107010;27;20031;-61
2023/05/05 16:52:37;;;;;;;12.90;4.38;;;;;;;;;;5108233;27;20099;-63
2023/05/05 16:56:18;;;;;;;10.60;4.03;;;;;;;;;;5106171;27;20055;-63
2023/05/05 16:59:58;;;;;;;12.35;4.18;;;;;;;;;;5106189;27;20434;-63
2023/05/05 17:03:38;;;;;;;10.20;4.10;;;;;;;;;;5104365;27;20055;-62
2023/05/05 17:07:19;;;;;;;9.77;4.20;;;;;;;;;;5105479;27;20051;-63
2023/05/05 17:11:00;;;;;;;14.95;5.40;;;;;;;;;;5108729;27;20108;-63
2023/05/05 17:14:40;;;;;;;12.48;4.70;;;;;;;;;;5107067;27;20074;-63
2023/05/05 17:18:24;;;;;;;7.15;3.97;;;;;;;;;;5103989;27;20043;-63
2023/05/05 17:22:01;;;;;;;9.80;4.28;;;;;;;;;;5114833;27;20510;-59
2023/05/05 17:25:41;;;;;;;12.15;4.90;;;;;;;;;;5106419;27;20057;-63
2023/05/05 17:29:22;;;;;;;11.77;4.43;;;;;;;;;;5105092;27;20742;-60
2023/05/05 17:33:03;;;;;;;10.35;4.45;;;;;;;;;;5103282;27;20049;-61
2023/05/05 17:36:44;;;;;;;13.77;5.60;;;;;;;;;;5102444;27;20047;-65
2023/05/05 17:40:25;;;;;;;10.82;5.65;;;;;;;;;;5102115;27;20476;-66
2023/05/05 17:44:05;;;;;;;11.45;5.45;;;;;;;;;;5108281;27;20320;-63
2023/05/05 17:47:45;;;;;;;11.25;5.63;;;;;;;;;;5110159;27;20039;-64
2023/05/05 17:51:27;;;;;;;10.43;5.43;;;;;;;;;;5112120;27;20039;-66
2023/05/05 17:55:06;;;;;;;12.93;6.15;;;;;;;;;;5104241;27;20604;-66
2023/05/05 17:58:47;;;;;;;11.25;5.28;;;;;;;;;;5108380;27;20054;-68
2023/05/05 18:02:27;;;;;;;12.10;5.28;;;;;;;;;;5106491;27;20628;-66
2023/05/05 18:06:07;;;;;;;12.23;5.95;;;;;;;;;;5105945;27;20073;-67
2023/05/05 18:09:48;;;;;;;13.02;5.80;;;;;;;;;;5108275;27;20508;-65
2023/05/05 18:13:28;;;;;;;9.45;5.70;;;;;;;;;;5104908;27;20141;-67
2023/05/05 18:17:08;;;;;;;11.50;6.13;;;;;;;;;;5107366;27;20362;-64
2023/05/05 18:20:49;;;;;;;12.40;6.00;;;;;;;;;;5109059;27;20057;-66
2023/05/05 18:24:33;;;;;;;10.45;5.88;;;;;;;;;;5104507;27;20111;-65
2023/05/05 18:28:14;;;;;;;15.38;6.75;;;;;;;;;;5106440;27;20054;-67
2023/05/05 18:31:54;;;;;;;11.15;5.97;;;;;;;;;;5107261;27;20134;-64
2023/05/05 18:35:34;;;;;;;14.82;5.82;;;;;;;;;;5107677;27;20184;-63
2023/05/05 18:39:20;;;;;;;10.50;6.00;;;;;;;;;;5096885;27;20444;-66
2023/05/05 18:43:00;;;;;;;9.40;5.55;;;;;;;;;;5110644;27;20050;-66
2023/05/05 18:46:41;;;;;;;15.57;6.55;;;;;;;;;;5106159;27;20043;-67
2023/05/05 18:50:21;;;;;;;14.52;6.10;;;;;;;;;;5109081;27;20070;-67
2023/05/05 18:53:26;;;;;;;10.23;6.28;;;;;;;;;;5106350;27;20414;-64
2023/05/05 18:56:32;;;;;;;11.25;5.60;;;;;;;;;;5108337;27;20050;-66
2023/05/05 18:59:34;;;;;;;14.80;6.07;;;;;;;;;;5105125;27;20057;-65
2023/05/05 19:02:39;;;;;;;10.73;5.50;;;;;;;;;;5104884;27;20115;-65
2023/05/05 19:06:20;;;;;;;13.95;6.18;;;;;;;;;;5103836;27;20418;-66
2023/05/05 19:09:04;;;;;;;11.05;6.22;;;;;;;;;;5108137;27;20153;-67
2023/05/05 19:11:30;;;;;;;14.70;6.95;;;;;;;;;;5085306;27;20962;-66
2023/05/05 19:13:57;;;;;;;14.80;6.78;;;;;;;;;;5107648;27;20043;-65
2023/05/05 19:16:23;;;;;;;11.82;6.75;;;;;;;;;;5109349;27;20073;-67
2023/05/05 19:18:49;;;;;;;11.98;6.78;;;;;;;;;;5070872;27;20049;-65
2023/05/05 19:21:15;;;;;;;12.55;7.15;;;;;;;;;;5096649;27;20051;-60
2023/05/05 19:23:41;;;;;;;12.77;6.65;;;;;;;;;;5106071;27;20051;-63
2023/05/05 19:26:07;;;;;;;12.23;7.60;;;;;;;;;;5107466;27;20203;-63
2023/05/05 19:28:35;;;;;;;13.18;7.60;;;;;;;;;;5110612;27;20194;-64
2023/05/05 19:31:00;;;;;;;12.05;7.38;;;;;;;;;;5108936;27;20128;-62
2023/05/05 19:33:27;;;;;;;15.27;7.35;;;;;;;;;;5111842;27;20110;-63
2023/05/05 19:35:52;;;;;;;15.90;7.25;;;;;;;;;;5108600;27;20534;-64
2023/05/05 19:38:19;;;;;;;13.50;7.15;;;;;;;;;;5109551;27;20043;-60
2023/05/05 19:40:45;;;;;;;16.70;8.95;;;;;;;;;;5107565;27;20050;-62
2023/05/05 19:43:11;;;;;;;14.13;7.72;;;;;;;;;;5109290;27;20407;-61
2023/05/05 19:45:37;;;;;;;13.60;7.18;;;;;;;;;;5108260;27;20561;-64
2023/05/05 19:48:05;;;;;;;12.77;7.28;;;;;;;;;;5105359;27;20062;-63
2023/05/05 19:50:31;;;;;;;14.65;7.75;;;;;;;;;;5105174;27;20209;-63
2023/05/05 19:52:57;;;;;;;11.68;6.22;;;;;;;;;;5099468;27;20417;-59
2023/05/05 19:55:23;;;;;;;13.93;7.20;;;;;;;;;;5105915;27;20040;-66
2023/05/05 19:58:17;;;;;;;18.00;7.25;;;;;;;;;;5085115;27;20042;-61
2023/05/05 20:03:53;;;;;;;24.25;7.45;;;;;;;;;;5011309;22;20060;-61
2023/05/05 20:07:33;;;;;;;12.60;6.80;;;;;;;;;;5005448;28;20445;-60
2023/05/05 20:11:13;;;;;;;14.38;7.40;;;;;;;;;;5008831;28;20236;-61
2023/05/05 20:14:54;;;;;;;16.30;8.63;;;;;;;;;;5006621;28;20710;-62
2023/05/05 20:18:34;;;;;;;14.30;8.18;;;;;;;;;;5006898;28;20083;-63
2023/05/05 20:22:14;;;;;;;15.10;8.05;;;;;;;;;;5003498;28;20120;-62
2023/05/05 20:25:55;;;;;;;13.60;7.15;;;;;;;;;;4999782;28;20056;-63
2023/05/05 20:29:35;;;;;;;13.27;7.30;;;;;;;;;;5001786;28;20424;-63
2023/05/05 20:33:15;;;;;;;16.85;7.40;;;;;;;;;;5006495;28;20148;-62
2023/05/05 20:36:57;;;;;;;12.65;7.00;;;;;;;;;;5006742;28;20120;-64
2023/05/05 20:40:38;;;;;;;14.57;7.70;;;;;;;;;;5003467;28;20060;-64
2023/05/05 20:44:19;;;;;;;15.23;7.57;;;;;;;;;;5005147;28;20045;-64
2023/05/05 20:47:59;;;;;;;14.73;7.80;;;;;;;;;;5001649;28;20431;-64
2023/05/05 20:51:39;;;;;;;11.82;7.28;;;;;;;;;;5002798;28;20057;-65
2023/05/05 20:55:20;;;;;;;20.73;8.50;;;;;;;;;;5002282;28;20033;-61
2023/05/05 20:59:02;;;;;;;14.02;8.02;;;;;;;;;;5006742;28;21335;-64
2023/05/05 21:02:42;;;;;;;14.15;8.13;;;;;;;;;;4998683;28;20049;-62